Terminal Aerodrome Forecast
Issued by NWS

Current Version | Previous Version | Text Only | Print | Product List | Glossary On
Versions: 1 2 3 4 5 6 7 8 9 10 11 12 13 14 15 16 17 18 19 20 21 22 23
000 FTUS41 KGYX 281956 AAB TAFLEB TAF AMD KLEB 281956Z 2820/2918 04006KT P6SM OVC015 FM282130 VRB03KT 5SM -SHRA BR OVC015 FM290600 35003KT 3SM BR OVC012 FM291500 33008G16KT P6SM BKN035=

USA.gov is the U.S. government's official web portal to all federal, state and local government web resources and services.